createdAt,value
2023-04-21T00:00:40.519Z,19.33
2023-04-21T00:03:06.916Z,18.83
2023-04-21T00:05:34.059Z,18.63
2023-04-21T00:08:00.447Z,19.55
2023-04-21T00:10:26.665Z,18.75
2023-04-21T00:12:52.854Z,21.55
2023-04-21T00:15:19.069Z,19.85
2023-04-21T00:17:45.420Z,21.70
2023-04-21T00:20:12.084Z,19.98
2023-04-21T00:22:38.290Z,20.38
2023-04-21T00:25:04.760Z,18.90
2023-04-21T00:27:31.027Z,21.38
2023-04-21T00:29:57.237Z,20.38
2023-04-21T00:32:23.509Z,20.27
2023-04-21T00:34:49.779Z,19.25
2023-04-21T00:37:16.055Z,20.65
2023-04-21T00:39:42.255Z,20.38
2023-04-21T00:42:08.447Z,20.40
2023-04-21T00:44:34.667Z,21.02
2023-04-21T00:47:00.993Z,21.00
2023-04-21T00:49:27.535Z,19.67
2023-04-21T00:51:54.524Z,20.55
2023-04-21T00:54:23.813Z,20.15
2023-04-21T00:56:50.057Z,24.63
2023-04-21T00:59:16.489Z,20.90
2023-04-21T01:01:42.836Z,24.65
2023-04-21T01:04:10.389Z,23.05
2023-04-21T01:06:37.032Z,22.58
2023-04-21T01:09:04.812Z,24.30
2023-04-21T01:11:32.026Z,21.88
2023-04-21T01:13:58.498Z,21.38
2023-04-21T01:16:24.893Z,23.60
2023-04-21T01:18:53.249Z,22.73
2023-04-21T01:21:21.230Z,24.73
2023-04-21T01:23:47.582Z,23.83
2023-04-21T01:26:13.769Z,22.98
2023-04-21T01:28:40.185Z,25.65
2023-04-21T01:31:06.459Z,21.02
2023-04-21T01:33:32.669Z,22.70
2023-04-21T01:36:00.966Z,24.55
2023-04-21T01:38:27.449Z,22.10
2023-04-21T01:40:54.107Z,22.83
2023-04-21T01:43:22.207Z,25.35
2023-04-21T01:45:48.501Z,23.10
2023-04-21T01:48:14.732Z,23.92
2023-04-21T01:50:40.985Z,25.45
2023-04-21T01:53:07.227Z,21.75
2023-04-21T01:55:33.504Z,24.92
2023-04-21T01:57:59.961Z,22.60
2023-04-21T02:00:26.648Z,23.73
2023-04-21T02:02:53.266Z,24.92
2023-04-21T02:05:19.609Z,23.95
2023-04-21T02:07:45.868Z,22.73
2023-04-21T02:10:12.425Z,24.30
2023-04-21T02:12:38.710Z,23.73
2023-04-21T02:15:05.351Z,24.85
2023-04-21T02:17:31.691Z,22.98
2023-04-21T02:19:57.994Z,24.77
2023-04-21T02:22:24.226Z,26.17
2023-04-21T02:24:50.721Z,23.58
2023-04-21T02:27:16.945Z,26.65
2023-04-21T02:29:43.150Z,25.02
2023-04-21T02:32:22.259Z,26.95
2023-04-21T02:34:51.552Z,26.65
2023-04-21T02:37:17.783Z,25.85
2023-04-21T02:39:44.753Z,24.42
2023-04-21T02:42:11.344Z,30.10
2023-04-21T02:44:38.248Z,27.92
2023-04-21T02:47:04.493Z,29.40
2023-04-21T02:49:31.089Z,25.60
2023-04-21T02:51:58.020Z,27.20
2023-04-21T02:54:24.259Z,25.42
2023-04-21T02:56:50.451Z,26.10
2023-04-21T02:59:16.862Z,26.42
2023-04-21T03:01:43.259Z,26.45
2023-04-21T03:04:09.546Z,29.75
2023-04-21T03:06:35.763Z,27.40
2023-04-21T03:09:01.969Z,28.75
2023-04-21T03:11:28.161Z,23.23
2023-04-21T03:13:54.375Z,27.10
2023-04-21T03:16:20.633Z,26.45
2023-04-21T03:18:46.893Z,27.15
2023-04-21T03:21:13.079Z,23.27
2023-04-21T03:23:39.368Z,26.60
2023-04-21T03:26:08.727Z,27.02
2023-04-21T03:28:35.032Z,26.80
2023-04-21T03:31:01.229Z,24.52
2023-04-21T03:33:27.482Z,31.85
2023-04-21T03:35:53.690Z,28.35
2023-04-21T03:38:19.905Z,30.92
2023-04-21T03:40:46.097Z,29.50
2023-04-21T03:43:12.300Z,30.85
2023-04-21T03:45:38.639Z,31.98
2023-04-21T03:48:05.100Z,27.52
2023-04-21T03:50:31.359Z,31.88
2023-04-21T03:52:57.618Z,29.00
2023-04-21T03:55:23.812Z,33.58
2023-04-21T03:57:50.155Z,30.42
2023-04-21T04:00:16.762Z,33.63
2023-04-21T04:02:43.785Z,26.30
2023-04-21T04:05:10.222Z,33.13
2023-04-21T04:07:36.470Z,28.17
2023-04-21T04:10:02.808Z,31.30
2023-04-21T04:12:28.986Z,26.88
2023-04-21T04:14:55.203Z,27.55
2023-04-21T04:17:21.446Z,29.83
2023-04-21T04:19:47.690Z,27.00
2023-04-21T04:22:13.868Z,31.63
2023-04-21T04:24:40.086Z,32.40
2023-04-21T04:27:06.911Z,26.45
2023-04-21T04:29:33.131Z,29.13
2023-04-21T04:32:01.533Z,30.77
2023-04-21T04:34:27.747Z,32.90
2023-04-21T04:36:53.975Z,33.38
2023-04-21T04:39:22.062Z,34.65
2023-04-21T04:41:48.619Z,32.78
2023-04-21T04:44:16.174Z,32.15
2023-04-21T04:46:42.837Z,31.20
2023-04-21T04:49:09.092Z,31.55
2023-04-21T04:51:35.370Z,32.10
2023-04-21T04:54:01.920Z,33.20
2023-04-21T04:56:30.311Z,30.70
2023-04-21T04:58:56.770Z,37.00
2023-04-21T05:01:29.146Z,31.85
2023-04-21T05:03:55.514Z,31.08
2023-04-21T05:06:22.054Z,29.08
2023-04-21T05:08:48.489Z,30.48
2023-04-21T05:11:14.686Z,29.77
2023-04-21T05:13:40.947Z,30.00
2023-04-21T05:16:07.484Z,30.90
2023-04-21T05:18:33.707Z,31.50
2023-04-21T05:20:59.909Z,30.75
2023-04-21T05:23:26.412Z,33.78
2023-04-21T05:25:52.712Z,32.25
2023-04-21T05:28:18.921Z,33.28
2023-04-21T05:30:45.243Z,28.95
2023-04-21T05:33:11.537Z,29.95
2023-04-21T05:35:38.186Z,27.45
2023-04-21T05:38:04.562Z,29.88
2023-04-21T05:40:30.927Z,27.75
2023-04-21T05:42:57.146Z,30.45
2023-04-21T05:45:23.432Z,33.95
2023-04-21T05:47:49.711Z,31.92
2023-04-21T05:50:17.005Z,31.52
2023-04-21T05:52:43.254Z,31.52
2023-04-21T05:55:09.484Z,29.02
2023-04-21T05:57:35.895Z,31.00
2023-04-21T06:00:02.178Z,36.47
2023-04-21T06:02:28.472Z,35.55
2023-04-21T06:04:54.941Z,33.40
2023-04-21T06:07:21.386Z,30.95
2023-04-21T06:09:51.140Z,33.75
2023-04-21T06:12:17.331Z,33.63
2023-04-21T06:14:43.549Z,34.65
2023-04-21T06:17:09.732Z,36.92
2023-04-21T06:19:39.796Z,37.15
2023-04-21T06:22:07.045Z,38.33
2023-04-21T06:24:33.347Z,33.95
2023-04-21T06:26:59.556Z,32.80
2023-04-21T06:29:25.773Z,33.42
2023-04-21T06:31:52.040Z,31.90
2023-04-21T06:34:20.155Z,30.00
2023-04-21T06:36:46.577Z,28.60
2023-04-21T06:39:12.784Z,30.45
2023-04-21T06:41:39.077Z,29.08
2023-04-21T06:44:05.422Z,29.10
2023-04-21T06:46:31.779Z,32.10
2023-04-21T06:48:58.023Z,30.15
2023-04-21T06:51:24.221Z,32.00
2023-04-21T06:53:50.490Z,28.83
2023-04-21T06:56:16.700Z,30.67
2023-04-21T06:58:42.906Z,26.02
2023-04-21T07:01:09.198Z,26.65
2023-04-21T07:03:35.509Z,28.45
2023-04-21T07:06:01.781Z,25.13
2023-04-21T07:08:28.014Z,26.92
2023-04-21T07:10:54.209Z,25.80
2023-04-21T07:13:20.529Z,24.75
2023-04-21T07:15:46.782Z,23.52
2023-04-21T07:18:13.002Z,22.73
2023-04-21T07:20:39.337Z,21.48
2023-04-21T07:23:05.597Z,21.25
2023-04-21T07:25:31.810Z,21.20
2023-04-21T07:27:58.104Z,18.30
2023-04-21T07:30:24.361Z,18.25
2023-04-21T07:32:50.685Z,18.83
2023-04-21T07:35:17.019Z,19.92
2023-04-21T07:37:43.559Z,19.45
2023-04-21T07:40:11.054Z,17.00
2023-04-21T07:42:37.374Z,18.33
2023-04-21T07:45:04.351Z,19.67
2023-04-21T07:47:31.294Z,18.90
2023-04-21T07:49:57.530Z,18.27
2023-04-21T07:52:23.782Z,18.77
2023-04-21T07:54:50.570Z,19.42
2023-04-21T07:57:16.837Z,19.38
2023-04-21T07:59:43.277Z,21.48
2023-04-21T08:02:09.617Z,19.10
2023-04-21T08:04:35.922Z,18.05
2023-04-21T08:07:02.939Z,21.00
2023-04-21T08:09:29.276Z,24.77
2023-04-21T08:11:57.034Z,23.70
2023-04-21T08:14:23.508Z,19.67
2023-04-21T08:16:49.842Z,24.15
2023-04-21T08:19:16.143Z,22.48
2023-04-21T08:21:42.329Z,19.80
2023-04-21T08:24:08.561Z,21.48
2023-04-21T08:26:34.997Z,20.38
2023-04-21T08:29:03.514Z,20.63
2023-04-21T08:31:30.824Z,20.13
2023-04-21T08:34:01.921Z,22.10
2023-04-21T08:36:30.166Z,19.77
2023-04-21T08:38:57.102Z,20.00
2023-04-21T08:41:24.350Z,21.30
2023-04-21T08:43:50.623Z,18.20
2023-04-21T08:46:17.029Z,21.20
2023-04-21T08:48:43.334Z,21.02
2023-04-21T08:51:09.916Z,22.17
2023-04-21T08:53:37.067Z,24.13
2023-04-21T08:58:36.034Z,20.48
2023-04-21T09:01:02.252Z,19.98
2023-04-21T09:03:28.849Z,20.88
2023-04-21T09:06:01.885Z,21.67
2023-04-21T09:08:30.138Z,20.98
2023-04-21T09:10:56.926Z,18.20
2023-04-21T09:13:29.214Z,18.35
2023-04-21T09:15:55.538Z,18.45
2023-04-21T09:18:23.440Z,18.67
2023-04-21T09:20:51.388Z,20.40
2023-04-21T09:23:17.733Z,18.92
2023-04-21T09:25:45.422Z,17.70
2023-04-21T09:28:13.042Z,23.85
2023-04-21T09:30:40.176Z,18.95
2023-04-21T09:33:16.665Z,17.15
2023-04-21T09:35:52.374Z,17.58
2023-04-21T09:38:22.429Z,19.75
2023-04-21T09:40:58.186Z,18.13
2023-04-21T09:43:24.414Z,20.02
2023-04-21T09:45:50.901Z,15.63
2023-04-21T09:48:17.727Z,15.40
2023-04-21T09:53:17.001Z,16.33
2023-04-21T09:55:46.452Z,14.52
2023-04-21T09:58:13.195Z,16.63
2023-04-21T10:00:39.796Z,17.95
2023-04-21T10:03:10.444Z,18.02
2023-04-21T10:05:39.473Z,16.88
2023-04-21T10:08:11.185Z,22.38
2023-04-21T10:10:37.386Z,21.67
2023-04-21T10:13:04.151Z,21.60
2023-04-21T10:15:34.312Z,18.90
2023-04-21T10:18:15.966Z,17.75
2023-04-21T10:23:08.331Z,17.92
2023-04-21T10:25:34.541Z,16.60
2023-04-21T10:28:00.818Z,15.88
2023-04-21T10:30:27.406Z,17.35
2023-04-21T10:33:03.237Z,16.48
2023-04-21T10:35:49.497Z,17.05
2023-04-21T10:38:33.534Z,15.32
2023-04-21T10:41:26.248Z,16.40
2023-04-21T10:43:52.460Z,18.05
2023-04-21T10:46:35.388Z,13.75
2023-04-21T10:49:08.692Z,16.33
2023-04-21T10:51:53.518Z,18.55
2023-04-21T10:54:21.804Z,14.57
2023-04-21T10:56:49.462Z,16.38
2023-04-21T10:59:16.260Z,14.25
2023-04-21T11:01:42.735Z,13.32
2023-04-21T11:04:15.913Z,13.82
2023-04-21T11:06:42.561Z,14.85
2023-04-21T11:09:09.298Z,12.38
2023-04-21T11:11:36.437Z,12.73
2023-04-21T11:14:02.952Z,11.40
2023-04-21T11:16:29.242Z,15.13
2023-04-21T11:18:56.721Z,13.68
2023-04-21T11:21:24.483Z,14.90
2023-04-21T11:23:51.745Z,11.35
2023-04-21T11:26:18.113Z,12.35
2023-04-21T11:28:47.189Z,12.07
2023-04-21T11:31:13.524Z,9.95
2023-04-21T11:33:39.870Z,10.82
2023-04-21T11:36:07.324Z,11.45
2023-04-21T11:38:40.330Z,12.20
2023-04-21T11:41:07.069Z,10.15
2023-04-21T11:43:33.314Z,10.27
2023-04-21T11:46:33.297Z,9.32
2023-04-21T11:49:00.902Z,9.93
2023-04-21T11:51:27.996Z,9.55
2023-04-21T11:53:54.279Z,9.98
2023-04-21T11:56:21.639Z,9.68
2023-04-21T11:58:51.032Z,8.90
2023-04-21T12:01:17.274Z,11.57
2023-04-21T12:03:50.682Z,9.43
2023-04-21T12:06:20.626Z,9.00
2023-04-21T12:08:46.946Z,10.70
2023-04-21T12:11:15.935Z,10.70
2023-04-21T12:13:42.179Z,12.10
2023-04-21T12:16:08.418Z,9.75
2023-04-21T12:18:36.737Z,10.55
2023-04-21T12:21:03.362Z,9.25
2023-04-21T12:23:29.718Z,10.98
2023-04-21T12:25:55.912Z,10.13
2023-04-21T12:28:22.189Z,10.85
2023-04-21T12:30:48.378Z,9.63
2023-04-21T12:33:14.677Z,10.27
2023-04-21T12:35:41.052Z,9.38
2023-04-21T12:38:07.336Z,10.82
2023-04-21T12:40:33.582Z,9.15
2023-04-21T12:42:59.789Z,8.30
2023-04-21T12:45:26.099Z,9.25
2023-04-21T12:47:52.329Z,8.20
2023-04-21T12:50:18.569Z,8.45
2023-04-21T12:52:44.802Z,9.93
2023-04-21T12:55:13.248Z,10.98
2023-04-21T12:57:39.460Z,8.70
2023-04-21T13:00:06.026Z,9.82
2023-04-21T13:02:36.990Z,11.98
2023-04-21T13:05:04.853Z,8.68
2023-04-21T13:07:31.306Z,12.57
2023-04-21T13:09:57.717Z,10.23
2023-04-21T13:12:23.932Z,11.88
2023-04-21T13:14:50.368Z,10.82
2023-04-21T13:17:16.746Z,10.30
2023-04-21T13:19:42.993Z,10.77
2023-04-21T13:22:09.198Z,10.45
2023-04-21T13:24:35.388Z,11.18
2023-04-21T13:27:01.897Z,12.57
2023-04-21T13:29:34.719Z,14.20
2023-04-21T13:32:01.745Z,11.05
2023-04-21T13:34:28.148Z,14.23
2023-04-21T13:36:54.617Z,11.15
2023-04-21T13:39:21.224Z,12.23
2023-04-21T13:41:48.001Z,12.15
2023-04-21T13:44:14.400Z,11.27
2023-04-21T13:46:40.635Z,10.75
2023-04-21T13:49:07.341Z,10.63
2023-04-21T13:51:33.963Z,9.25
2023-04-21T13:54:00.194Z,9.35
2023-04-21T13:56:26.405Z,10.02
2023-04-21T13:58:52.614Z,13.73
2023-04-21T14:01:21.231Z,8.82
2023-04-21T14:03:48.044Z,8.27
2023-04-21T14:06:14.700Z,9.15
2023-04-21T14:08:40.905Z,11.55
2023-04-21T14:11:07.165Z,8.88
2023-04-21T14:13:39.446Z,9.73
2023-04-21T14:16:06.846Z,11.98
2023-04-21T14:18:33.604Z,11.55
2023-04-21T14:20:59.949Z,10.15
2023-04-21T14:23:26.295Z,9.40
2023-04-21T14:25:54.342Z,9.07
2023-04-21T14:28:21.374Z,9.65
2023-04-21T14:30:47.624Z,8.02
2023-04-21T14:33:13.922Z,7.68
2023-04-21T14:35:40.798Z,10.07
2023-04-21T14:38:07.522Z,8.60
2023-04-21T14:40:33.782Z,7.97
2023-04-21T14:43:00.034Z,7.40
2023-04-21T14:45:26.733Z,12.23
2023-04-21T14:47:53.096Z,7.90
2023-04-21T14:50:19.359Z,8.07
2023-04-21T14:52:49.133Z,8.98
2023-04-21T14:55:15.880Z,7.35
2023-04-21T14:57:42.185Z,6.38
2023-04-21T15:00:10.444Z,7.78
2023-04-21T15:02:36.861Z,7.57
2023-04-21T15:05:03.553Z,7.93
2023-04-21T15:07:29.850Z,6.43
2023-04-21T15:09:56.068Z,6.65
2023-04-21T15:12:22.584Z,8.95
2023-04-21T15:14:48.903Z,6.97
2023-04-21T15:17:15.218Z,6.75
2023-04-21T15:19:41.597Z,6.70
2023-04-21T15:22:07.861Z,6.53
2023-04-21T15:24:35.220Z,6.47
2023-04-21T15:27:02.200Z,7.18
2023-04-21T15:29:29.015Z,6.30
2023-04-21T15:31:55.354Z,6.72
2023-04-21T15:34:21.614Z,6.80
2023-04-21T15:36:47.928Z,6.90
2023-04-21T15:39:14.222Z,6.38
2023-04-21T15:41:41.655Z,6.25
2023-04-21T15:44:07.954Z,7.00
2023-04-21T15:46:37.113Z,6.90
2023-04-21T15:49:03.405Z,7.45
2023-04-21T15:51:29.632Z,5.75
2023-04-21T15:53:55.898Z,5.72
2023-04-21T15:56:22.254Z,6.00
2023-04-21T15:58:48.475Z,5.82
2023-04-21T16:01:15.310Z,5.90
2023-04-21T16:03:42.181Z,6.05
2023-04-21T16:06:08.613Z,5.45
2023-04-21T16:08:34.873Z,6.18
2023-04-21T16:11:01.258Z,5.55
2023-04-21T16:13:27.620Z,5.38
2023-04-21T16:15:54.023Z,5.35
2023-04-21T16:18:20.883Z,6.50
2023-04-21T16:20:47.323Z,5.25
2023-04-21T16:23:13.981Z,7.55
2023-04-21T16:25:40.592Z,6.15
2023-04-21T16:28:07.129Z,5.28
2023-04-21T16:30:34.921Z,5.18
2023-04-21T16:33:01.350Z,5.53
2023-04-21T16:35:27.665Z,5.60
2023-04-21T16:37:53.978Z,6.38
2023-04-21T16:40:22.205Z,6.40
2023-04-21T16:42:48.923Z,5.43
2023-04-21T16:45:15.157Z,6.15
2023-04-21T16:47:42.339Z,6.65
2023-04-21T16:50:09.020Z,5.15
2023-04-21T16:52:35.477Z,5.22
2023-04-21T16:55:01.709Z,5.93
2023-04-21T16:57:29.233Z,6.13
2023-04-21T16:59:55.508Z,6.13
2023-04-21T17:02:22.178Z,5.57
2023-04-21T17:04:48.610Z,7.00
2023-04-21T17:07:14.998Z,5.60
2023-04-21T17:09:41.181Z,5.45
2023-04-21T17:12:07.581Z,5.75
2023-04-21T17:14:33.821Z,5.93
2023-04-21T17:17:00.258Z,6.47
2023-04-21T17:19:26.759Z,8.18
2023-04-21T17:21:52.974Z,5.95
2023-04-21T17:24:19.172Z,7.10
2023-04-21T17:26:45.441Z,6.07
2023-04-21T17:29:11.720Z,6.30
2023-04-21T17:31:38.356Z,6.32
2023-04-21T17:34:04.567Z,5.80
2023-04-21T17:36:30.856Z,5.80
2023-04-21T17:38:58.157Z,5.32
2023-04-21T17:41:24.888Z,4.88
2023-04-21T17:43:51.243Z,4.70
2023-04-21T17:46:17.495Z,5.60
2023-04-21T17:48:43.762Z,4.28
2023-04-21T17:51:10.910Z,6.32
2023-04-21T17:53:37.240Z,5.15
2023-04-21T17:56:03.486Z,5.25
2023-04-21T17:58:29.689Z,5.88
2023-04-21T18:00:55.992Z,6.10
2023-04-21T18:03:22.578Z,5.35
2023-04-21T18:05:49.679Z,5.55
2023-04-21T18:08:15.877Z,5.68
2023-04-21T18:10:42.068Z,4.40
2023-04-21T18:13:08.291Z,4.80
2023-04-21T18:15:34.560Z,4.95
2023-04-21T18:18:00.935Z,4.25
2023-04-21T18:20:27.437Z,4.68
2023-04-21T18:22:54.350Z,3.78
2023-04-21T18:25:30.600Z,4.57
2023-04-21T18:28:07.304Z,3.42
2023-04-21T18:30:33.743Z,3.35
2023-04-21T18:33:00.302Z,3.80
2023-04-21T18:35:26.763Z,3.58
2023-04-21T18:37:53.104Z,3.45
2023-04-21T18:40:19.334Z,3.50
2023-04-21T18:42:46.521Z,4.53
2023-04-21T18:45:12.769Z,5.10
2023-04-21T18:47:39.179Z,4.32
2023-04-21T18:50:06.401Z,2.05
2023-04-21T18:52:32.639Z,1.85
2023-04-21T18:54:58.865Z,1.85
2023-04-21T18:57:25.755Z,2.05
2023-04-21T18:59:52.408Z,3.10
2023-04-21T19:02:18.777Z,1.38
2023-04-21T19:04:45.474Z,2.38
2023-04-21T19:07:12.410Z,1.70
2023-04-21T19:09:38.702Z,3.30
2023-04-21T19:12:05.087Z,2.83
2023-04-21T19:14:42.541Z,3.75
2023-04-21T19:17:12.706Z,2.30
2023-04-21T19:19:38.908Z,4.45
2023-04-21T19:22:05.351Z,3.70
2023-04-21T19:24:31.549Z,2.83
2023-04-21T19:27:02.251Z,2.30
2023-04-21T19:29:28.529Z,5.17
2023-04-21T19:31:54.767Z,3.53
2023-04-21T19:34:21.442Z,2.50
2023-04-21T19:36:47.717Z,4.22
2023-04-21T19:39:14.189Z,3.33
2023-04-21T19:41:40.472Z,4.10
2023-04-21T19:44:06.663Z,3.10
2023-04-21T19:46:32.989Z,4.00
2023-04-21T19:48:59.412Z,3.58
2023-04-21T19:51:25.764Z,4.78
2023-04-21T19:53:59.626Z,3.38
2023-04-21T19:56:36.436Z,2.88
2023-04-21T19:59:04.803Z,4.68
2023-04-21T20:01:32.177Z,4.15
2023-04-21T20:03:59.637Z,3.90
2023-04-21T20:06:27.026Z,2.95
2023-04-21T20:08:53.277Z,3.75
2023-04-21T20:11:19.470Z,5.03
2023-04-21T20:13:45.751Z,4.95
2023-04-21T20:16:12.089Z,3.45
2023-04-21T20:18:39.748Z,4.47
2023-04-21T20:21:06.283Z,4.97
2023-04-21T20:23:32.501Z,3.25
2023-04-21T20:25:58.785Z,4.63
2023-04-21T20:28:25.210Z,3.78
2023-04-21T20:30:51.439Z,3.25
2023-04-21T20:33:17.905Z,6.00
2023-04-21T20:35:45.879Z,4.70
2023-04-21T20:38:12.191Z,3.38
2023-04-21T20:40:39.308Z,4.85
2023-04-21T20:43:06.254Z,6.07
2023-04-21T20:45:32.953Z,6.85
2023-04-21T20:47:59.162Z,5.60
2023-04-21T20:50:25.935Z,4.05
2023-04-21T20:52:52.196Z,4.00
2023-04-21T20:55:18.494Z,5.35
2023-04-21T20:57:44.695Z,4.85
2023-04-21T21:00:12.123Z,7.53
2023-04-21T21:02:38.500Z,6.05
2023-04-21T21:05:04.913Z,6.88
2023-04-21T21:07:31.368Z,4.68
2023-04-21T21:09:57.648Z,5.57
2023-04-21T21:12:24.238Z,4.57
2023-04-21T21:14:50.471Z,5.00
2023-04-21T21:17:17.075Z,5.35
2023-04-21T21:19:43.467Z,4.60
2023-04-21T21:22:09.735Z,4.68
2023-04-21T21:24:35.936Z,6.63
2023-04-21T21:27:02.150Z,4.88
2023-04-21T21:29:31.552Z,6.28
2023-04-21T21:31:57.816Z,4.75
2023-04-21T21:34:24.050Z,10.00
2023-04-21T21:36:50.230Z,6.82
2023-04-21T21:39:16.428Z,4.72
2023-04-21T21:41:42.624Z,6.07
2023-04-21T21:44:08.892Z,6.70
2023-04-21T21:46:35.212Z,4.72
2023-04-21T21:49:01.444Z,6.00
2023-04-21T21:51:28.769Z,5.60
2023-04-21T21:53:54.986Z,4.63
2023-04-21T21:56:21.892Z,6.22
2023-04-21T21:58:48.145Z,8.50
2023-04-21T22:01:17.764Z,4.85
2023-04-21T22:03:44.455Z,5.22
2023-04-21T22:06:12.322Z,5.55
2023-04-21T22:08:39.395Z,7.20
2023-04-21T22:11:05.786Z,5.35
2023-04-21T22:13:32.120Z,6.97
2023-04-21T22:15:58.346Z,8.13
2023-04-21T22:18:24.607Z,7.97
2023-04-21T22:20:50.799Z,6.80
2023-04-21T22:23:19.579Z,8.25
2023-04-21T22:25:45.756Z,6.72
2023-04-21T22:28:11.959Z,6.35
2023-04-21T22:30:38.196Z,9.00
2023-04-21T22:33:04.453Z,6.15
2023-04-21T22:35:30.967Z,5.97
2023-04-21T22:37:57.226Z,6.38
2023-04-21T22:40:23.478Z,8.00
2023-04-21T22:42:49.683Z,6.43
2023-04-21T22:45:15.906Z,7.10
2023-04-21T22:47:42.216Z,7.13
2023-04-21T22:50:09.404Z,7.63
2023-04-21T22:52:35.815Z,7.55
2023-04-21T22:55:03.685Z,9.15
2023-04-21T22:57:29.912Z,8.48
2023-04-21T22:59:56.106Z,10.50
2023-04-21T23:02:22.848Z,8.82
2023-04-21T23:04:49.159Z,9.13
2023-04-21T23:07:15.394Z,9.25
2023-04-21T23:09:41.669Z,8.25
2023-04-21T23:12:08.130Z,10.07
2023-04-21T23:14:34.371Z,9.75
2023-04-21T23:17:00.594Z,9.73
2023-04-21T23:19:26.897Z,8.15
2023-04-21T23:21:53.110Z,9.18
2023-04-21T23:24:19.341Z,7.05
2023-04-21T23:26:45.605Z,7.82
2023-04-21T23:29:11.860Z,8.18
2023-04-21T23:31:38.251Z,8.70
2023-04-21T23:34:04.507Z,7.22
2023-04-21T23:36:31.756Z,7.75
2023-04-21T23:38:58.033Z,6.75
2023-04-21T23:41:24.330Z,8.32
2023-04-21T23:43:50.532Z,7.28
2023-04-21T23:46:16.865Z,10.57
2023-04-21T23:48:43.271Z,7.57
2023-04-21T23:51:09.518Z,7.68
2023-04-21T23:53:36.035Z,8.30
2023-04-21T23:56:02.270Z,6.20
2023-04-21T23:58:28.576Z,6.57
